Terminal Aerodrome Forecast
Issued by NWS San Angelo, TX

Home | Current Version | Previous Version | Text Only | Print | Product List | Glossary On
Versions: 1 2 3 4 5 6 7 8 9 10 11 12 13 14 15 16 17 18 19 20
000
FTUS44 KSJT 242320
TAFABI
TAF
KABI 242320Z 2500/2524 17015G22KT P6SM SCT050
     FM250100 16012G18KT P6SM SCT250
     FM250600 18012G18KT P6SM OVC015
     FM251800 22011KT P6SM OVC025
     FM251900 22012G18KT P6SM FEW250=

USA.gov is the U.S. government's official web portal to all federal, state and local government web resources and services.